Time;durP1;ratioP1;P1;durP2;ratioP2;P2;SDS_P1;SDS_P2;PMS_P1;PMS_P2;Temp;Humidity;BMP_temperature;BMP_pressure;BME280_temperature;BME280_humidity;BME280_pressure;Samples;Min_cycle;Max_cycle;Signal;HPM_P1;HPM_P2
2022/05/12 00:00:17;;;;;;;3.35;1.40;;;;;;;;;;6279459;22;20163;-62
2022/05/12 00:02:42;;;;;;;3.08;1.20;;;;;;;;;;6279181;22;20140;-60
2022/05/12 00:05:08;;;;;;;5.78;1.50;;;;;;;;;;6279059;22;20489;-61
2022/05/12 00:07:34;;;;;;;4.57;1.48;;;;;;;;;;6279101;22;20143;-61
2022/05/12 00:10:00;;;;;;;3.53;1.30;;;;;;;;;;6278932;22;20162;-62
2022/05/12 00:12:26;;;;;;;4.72;1.75;;;;;;;;;;6278878;22;20139;-62
2022/05/12 00:14:52;;;;;;;7.47;1.65;;;;;;;;;;6279111;22;20140;-62
2022/05/12 00:17:18;;;;;;;2.70;1.30;;;;;;;;;;6279109;22;20179;-62
2022/05/12 00:19:44;;;;;;;3.38;1.15;;;;;;;;;;6278959;22;20136;-62
2022/05/12 00:22:10;;;;;;;7.13;1.58;;;;;;;;;;6278993;22;20185;-62
2022/05/12 00:24:36;;;;;;;5.55;1.92;;;;;;;;;;6278984;22;20185;-62
2022/05/12 00:27:02;;;;;;;5.13;1.45;;;;;;;;;;6278798;22;20500;-62
2022/05/12 00:29:28;;;;;;;5.90;1.80;;;;;;;;;;6278723;22;20615;-62
2022/05/12 00:31:54;;;;;;;5.20;1.50;;;;;;;;;;6278739;22;20225;-62
2022/05/12 00:34:21;;;;;;;3.35;1.40;;;;;;;;;;6278762;22;20143;-62
2022/05/12 00:36:47;;;;;;;3.28;1.23;;;;;;;;;;6279280;22;20466;-62
2022/05/12 00:39:14;;;;;;;3.67;1.50;;;;;;;;;;6278804;22;20142;-61
2022/05/12 00:41:40;;;;;;;4.43;1.20;;;;;;;;;;6278926;22;20200;-62
2022/05/12 00:44:07;;;;;;;5.40;1.50;;;;;;;;;;6278674;22;20147;-62
2022/05/12 00:46:35;;;;;;;6.50;1.45;;;;;;;;;;6278668;22;20269;-62
2022/05/12 00:49:12;;;;;;;3.60;1.48;;;;;;;;;;6278670;22;20139;-62
2022/05/12 00:51:41;;;;;;;6.88;1.70;;;;;;;;;;6278715;22;20547;-62
2022/05/12 00:54:12;;;;;;;4.47;1.40;;;;;;;;;;6278421;22;20135;-62
2022/05/12 00:56:39;;;;;;;5.57;1.50;;;;;;;;;;6278566;22;20231;-60
2022/05/12 00:59:08;;;;;;;5.10;1.50;;;;;;;;;;6278808;22;20194;-61
2022/05/12 01:01:34;;;;;;;3.20;1.30;;;;;;;;;;6278695;22;20222;-62
2022/05/12 01:04:01;;;;;;;3.75;1.42;;;;;;;;;;6278585;22;20171;-62
2022/05/12 01:06:27;;;;;;;5.15;1.58;;;;;;;;;;6278798;22;20162;-61
2022/05/12 01:08:53;;;;;;;5.15;1.70;;;;;;;;;;6279358;22;20148;-61
2022/05/12 01:11:20;;;;;;;7.18;2.25;;;;;;;;;;6279458;22;20190;-62
2022/05/12 01:13:49;;;;;;;4.38;2.03;;;;;;;;;;6280210;22;20218;-62
2022/05/12 01:16:32;;;;;;;2.72;1.52;;;;;;;;;;6283015;22;20136;-62
2022/05/12 01:18:58;;;;;;;4.72;1.70;;;;;;;;;;6283805;22;20182;-62
2022/05/12 01:21:24;;;;;;;4.65;1.77;;;;;;;;;;6284417;22;20190;-62
2022/05/12 01:23:51;;;;;;;5.55;1.88;;;;;;;;;;6285436;22;20135;-62
2022/05/12 01:26:17;;;;;;;4.00;1.90;;;;;;;;;;6261328;22;20136;-62
2022/05/12 01:28:43;;;;;;;5.30;2.00;;;;;;;;;;6290704;22;20140;-62
2022/05/12 01:31:09;;;;;;;4.65;1.90;;;;;;;;;;6294130;22;20150;-62
2022/05/12 01:33:35;;;;;;;5.90;2.10;;;;;;;;;;6287825;22;20154;-62
2022/05/12 01:36:02;;;;;;;5.70;2.05;;;;;;;;;;6288840;22;20227;-61
2022/05/12 01:38:28;;;;;;;7.95;2.15;;;;;;;;;;6299858;22;20159;-62
2022/05/12 01:40:54;;;;;;;6.82;2.22;;;;;;;;;;6300818;22;20169;-62
2022/05/12 01:43:20;;;;;;;4.28;2.83;;;;;;;;;;6300857;22;20131;-62
2022/05/12 01:45:46;;;;;;;5.47;2.03;;;;;;;;;;6299592;22;20657;-61
2022/05/12 01:48:13;;;;;;;5.32;2.33;;;;;;;;;;6283148;22;20227;-61
2022/05/12 01:50:40;;;;;;;5.25;2.60;;;;;;;;;;6278169;22;20150;-62
2022/05/12 01:53:09;;;;;;;5.18;2.17;;;;;;;;;;6278144;22;20147;-62
2022/05/12 01:55:35;;;;;;;6.38;2.67;;;;;;;;;;6277811;22;20163;-62
2022/05/12 01:58:01;;;;;;;4.15;2.28;;;;;;;;;;6277640;22;20164;-62
2022/05/12 02:00:28;;;;;;;4.72;2.65;;;;;;;;;;6278177;22;20185;-60
2022/05/12 02:02:54;;;;;;;7.72;2.58;;;;;;;;;;6278076;22;20143;-62
2022/05/12 02:05:20;;;;;;;7.18;2.70;;;;;;;;;;6277967;22;20174;-62
2022/05/12 02:07:47;;;;;;;5.20;2.65;;;;;;;;;;6277671;22;20560;-62
2022/05/12 02:10:16;;;;;;;5.47;2.58;;;;;;;;;;6277651;22;20574;-62
2022/05/12 02:12:41;;;;;;;7.57;2.50;;;;;;;;;;6278127;22;20232;-62
2022/05/12 02:15:08;;;;;;;9.38;2.58;;;;;;;;;;6277629;22;20148;-62
2022/05/12 02:17:34;;;;;;;5.07;2.70;;;;;;;;;;6278000;22;20201;-62
2022/05/12 02:20:01;;;;;;;5.55;2.67;;;;;;;;;;6277623;22;20139;-62
2022/05/12 02:22:27;;;;;;;5.95;2.47;;;;;;;;;;6277720;22;20202;-60
2022/05/12 02:24:53;;;;;;;5.78;2.80;;;;;;;;;;6278018;22;20139;-62
2022/05/12 02:27:20;;;;;;;7.03;3.05;;;;;;;;;;6277644;22;20594;-61
2022/05/12 02:29:46;;;;;;;7.22;2.80;;;;;;;;;;6277719;22;20222;-62
2022/05/12 02:32:12;;;;;;;8.80;3.03;;;;;;;;;;6277518;22;20480;-62
2022/05/12 02:34:38;;;;;;;8.70;2.63;;;;;;;;;;6277518;22;20143;-62
2022/05/12 02:37:05;;;;;;;7.80;2.97;;;;;;;;;;6277316;22;20160;-62
2022/05/12 02:39:37;;;;;;;9.15;2.90;;;;;;;;;;6277558;22;20242;-62
2022/05/12 02:42:05;;;;;;;7.15;2.90;;;;;;;;;;6277806;22;20230;-62
2022/05/12 02:44:30;;;;;;;7.90;2.83;;;;;;;;;;6277660;22;20163;-62
2022/05/12 02:46:56;;;;;;;6.35;2.63;;;;;;;;;;6277348;22;20143;-62
2022/05/12 02:49:22;;;;;;;6.97;2.67;;;;;;;;;;6277292;22;20570;-62
2022/05/12 02:51:48;;;;;;;7.72;3.13;;;;;;;;;;6277218;22;20197;-62
2022/05/12 02:54:15;;;;;;;6.97;3.75;;;;;;;;;;6277576;22;20143;-62
2022/05/12 02:56:41;;;;;;;7.07;3.80;;;;;;;;;;6277269;22;20163;-62
2022/05/12 02:59:07;;;;;;;8.95;3.30;;;;;;;;;;6277871;22;20154;-61
2022/05/12 03:01:34;;;;;;;5.78;2.92;;;;;;;;;;6277438;22;20146;-61
2022/05/12 03:04:00;;;;;;;7.15;3.33;;;;;;;;;;6277250;22;20136;-61
2022/05/12 03:06:26;;;;;;;5.75;3.15;;;;;;;;;;6277563;22;20140;-60
2022/05/12 03:08:53;;;;;;;6.93;3.22;;;;;;;;;;6277539;22;20419;-61
2022/05/12 03:11:19;;;;;;;9.65;3.40;;;;;;;;;;6278099;22;20224;-61
2022/05/12 03:13:46;;;;;;;6.75;3.28;;;;;;;;;;6277839;22;20143;-60
2022/05/12 03:16:12;;;;;;;8.10;3.55;;;;;;;;;;6277921;22;20152;-60
2022/05/12 03:18:39;;;;;;;5.55;3.38;;;;;;;;;;6277333;22;20171;-61
2022/05/12 03:21:05;;;;;;;6.13;3.30;;;;;;;;;;6277714;22;20229;-62
2022/05/12 03:23:31;;;;;;;8.40;3.33;;;;;;;;;;6277000;22;20172;-61
2022/05/12 03:25:58;;;;;;;4.22;3.08;;;;;;;;;;6277542;22;20155;-61
2022/05/12 03:28:24;;;;;;;8.45;4.13;;;;;;;;;;6277324;22;20144;-62
2022/05/12 03:30:50;;;;;;;10.43;3.78;;;;;;;;;;6277037;22;20605;-63
2022/05/12 03:33:16;;;;;;;9.48;4.05;;;;;;;;;;6277438;22;20451;-62
2022/05/12 03:35:42;;;;;;;9.52;4.25;;;;;;;;;;6279542;22;20155;-62
2022/05/12 03:38:08;;;;;;;7.97;4.25;;;;;;;;;;6279047;22;20245;-62
2022/05/12 03:40:34;;;;;;;7.07;4.15;;;;;;;;;;6279062;22;20456;-62
2022/05/12 03:43:00;;;;;;;6.75;3.65;;;;;;;;;;6279456;22;20139;-61
2022/05/12 03:45:27;;;;;;;11.45;3.85;;;;;;;;;;6279014;22;20214;-61
2022/05/12 03:47:55;;;;;;;7.15;3.55;;;;;;;;;;6279169;22;20140;-62
2022/05/12 03:50:22;;;;;;;7.75;3.72;;;;;;;;;;6278981;22;20586;-62
2022/05/12 03:52:49;;;;;;;3.88;2.10;;;;;;;;;;6279177;22;20205;-61
2022/05/12 03:55:16;;;;;;;3.60;1.80;;;;;;;;;;6278766;22;20158;-61
2022/05/12 03:57:44;;;;;;;3.42;1.35;;;;;;;;;;6279303;22;20198;-61
2022/05/12 04:00:11;;;;;;;1.73;0.82;;;;;;;;;;6278956;22;20214;-61
2022/05/12 04:02:37;;;;;;;2.10;0.93;;;;;;;;;;6279183;22;20139;-61
2022/05/12 04:05:03;;;;;;;0.95;0.80;;;;;;;;;;6279317;22;20139;-61
2022/05/12 04:07:29;;;;;;;1.50;0.93;;;;;;;;;;6279014;22;20140;-61
2022/05/12 04:09:55;;;;;;;1.77;0.93;;;;;;;;;;6279148;22;20154;-61
2022/05/12 04:12:21;;;;;;;3.00;1.30;;;;;;;;;;6279182;22;20162;-61
2022/05/12 04:14:47;;;;;;;3.10;1.30;;;;;;;;;;6278811;22;20140;-61
2022/05/12 04:17:15;;;;;;;2.60;1.00;;;;;;;;;;6278887;22;20187;-61
2022/05/12 04:19:41;;;;;;;2.15;0.95;;;;;;;;;;6279286;22;20563;-61
2022/05/12 04:22:07;;;;;;;1.77;0.95;;;;;;;;;;6278756;22;20441;-61
2022/05/12 04:24:33;;;;;;;1.77;1.05;;;;;;;;;;6278655;22;20135;-61
2022/05/12 04:27:00;;;;;;;4.03;1.30;;;;;;;;;;6278796;22;20473;-61
2022/05/12 04:29:26;;;;;;;3.50;1.10;;;;;;;;;;6278973;22;20487;-61
2022/05/12 04:31:51;;;;;;;1.40;1.05;;;;;;;;;;6278923;22;20144;-61
2022/05/12 04:37:02;;;;;;;1.58;0.85;;;;;;;;;;6278594;22;20167;-61
2022/05/12 04:39:30;;;;;;;1.83;1.02;;;;;;;;;;6278542;22;20140;-61
2022/05/12 04:41:56;;;;;;;1.60;0.90;;;;;;;;;;6279060;22;20140;-61
2022/05/12 04:44:22;;;;;;;3.05;0.88;;;;;;;;;;6278673;22;20440;-61
2022/05/12 04:46:49;;;;;;;1.35;0.85;;;;;;;;;;6278817;22;20150;-61
2022/05/12 04:49:14;;;;;;;1.95;0.90;;;;;;;;;;6278876;22;20140;-61
2022/05/12 04:51:41;;;;;;;2.65;1.08;;;;;;;;;;6278546;22;20159;-61
2022/05/12 04:54:09;;;;;;;3.15;1.10;;;;;;;;;;6278935;22;20430;-61
2022/05/12 04:56:35;;;;;;;1.58;1.30;;;;;;;;;;6278499;22;20177;-61
2022/05/12 04:59:01;;;;;;;2.70;1.30;;;;;;;;;;6251816;22;20162;-61
2022/05/12 05:01:27;;;;;;;1.98;1.13;;;;;;;;;;6278458;22;20140;-61
2022/05/12 05:03:53;;;;;;;2.05;1.23;;;;;;;;;;6278476;22;20140;-61
2022/05/12 05:06:19;;;;;;;2.95;1.40;;;;;;;;;;6278866;22;20140;-62
2022/05/12 05:08:45;;;;;;;2.75;1.27;;;;;;;;;;6278261;22;20218;-61
2022/05/12 05:11:11;;;;;;;2.63;1.27;;;;;;;;;;6278195;22;20151;-61
2022/05/12 05:13:37;;;;;;;2.38;1.50;;;;;;;;;;6278433;22;20227;-61
2022/05/12 05:16:03;;;;;;;1.85;1.50;;;;;;;;;;6278250;22;20140;-62
2022/05/12 05:18:29;;;;;;;3.85;1.48;;;;;;;;;;6278517;22;20171;-60
2022/05/12 05:20:55;;;;;;;3.63;1.70;;;;;;;;;;6277939;22;20209;-62
2022/05/12 05:23:21;;;;;;;5.65;1.58;;;;;;;;;;6278128;22;20144;-61
2022/05/12 05:25:47;;;;;;;3.47;1.65;;;;;;;;;;6278281;22;20218;-61
2022/05/12 05:28:13;;;;;;;3.47;1.65;;;;;;;;;;6278327;22;20503;-61
2022/05/12 05:30:41;;;;;;;3.85;1.88;;;;;;;;;;6251102;22;20147;-61
2022/05/12 05:33:07;;;;;;;4.07;2.10;;;;;;;;;;6278387;22;20151;-61
2022/05/12 05:35:34;;;;;;;3.45;2.15;;;;;;;;;;6278242;22;20228;-61
2022/05/12 05:38:00;;;;;;;2.72;2.30;;;;;;;;;;6277794;22;20783;-60
2022/05/12 05:40:26;;;;;;;4.38;2.58;;;;;;;;;;6277822;22;20146;-61
2022/05/12 05:42:53;;;;;;;2.78;2.28;;;;;;;;;;6277957;22;20136;-60
2022/05/12 05:45:19;;;;;;;3.35;2.40;;;;;;;;;;6277852;22;20636;-60
2022/05/12 05:47:46;;;;;;;3.80;2.10;;;;;;;;;;6278315;22;20177;-60
2022/05/12 05:50:14;;;;;;;5.40;2.80;;;;;;;;;;6278229;22;20147;-61
2022/05/12 05:55:25;;;;;;;4.63;2.20;;;;;;;;;;6277599;22;20250;-59
2022/05/12 05:57:51;;;;;;;5.05;2.28;;;;;;;;;;6277693;22;20191;-60
2022/05/12 06:00:17;;;;;;;4.85;2.28;;;;;;;;;;6278167;22;20143;-60
2022/05/12 06:02:43;;;;;;;6.30;2.42;;;;;;;;;;6278229;22;20147;-61
2022/05/12 06:05:10;;;;;;;4.25;2.33;;;;;;;;;;6283020;22;20140;-61
2022/05/12 06:07:38;;;;;;;5.13;2.40;;;;;;;;;;6287182;22;20140;-60
2022/05/12 06:10:06;;;;;;;5.53;2.67;;;;;;;;;;6278012;22;20143;-61
2022/05/12 06:12:31;;;;;;;4.80;2.05;;;;;;;;;;6277582;22;20154;-61
2022/05/12 06:14:59;;;;;;;3.38;2.20;;;;;;;;;;6277992;22;20314;-61
2022/05/12 06:17:24;;;;;;;3.05;2.00;;;;;;;;;;6277397;22;20163;-61
2022/05/12 06:19:50;;;;;;;5.45;2.42;;;;;;;;;;6277598;22;20221;-60
2022/05/12 06:22:18;;;;;;;4.88;2.30;;;;;;;;;;6277734;22;20136;-61
2022/05/12 06:24:44;;;;;;;10.57;2.83;;;;;;;;;;6277746;22;20140;-61
2022/05/12 06:27:11;;;;;;;7.68;2.35;;;;;;;;;;6277315;22;20140;-61
2022/05/12 06:29:37;;;;;;;4.22;2.20;;;;;;;;;;6277385;22;20169;-60
2022/05/12 06:32:06;;;;;;;3.33;2.35;;;;;;;;;;6277681;22;20147;-61
2022/05/12 06:34:32;;;;;;;5.47;2.55;;;;;;;;;;6277347;22;20192;-59
2022/05/12 06:36:59;;;;;;;5.00;2.40;;;;;;;;;;6251871;22;20650;-61
2022/05/12 06:39:25;;;;;;;3.65;2.20;;;;;;;;;;6278201;22;20609;-62
2022/05/12 06:41:51;;;;;;;5.72;2.17;;;;;;;;;;6277862;22;20221;-61
2022/05/12 06:44:18;;;;;;;4.18;2.20;;;;;;;;;;6278190;22;20153;-61
2022/05/12 06:46:44;;;;;;;2.85;1.80;;;;;;;;;;6279516;22;20460;-61
2022/05/12 06:49:10;;;;;;;3.95;1.77;;;;;;;;;;6280350;22;20195;-61
2022/05/12 06:51:37;;;;;;;3.03;1.90;;;;;;;;;;6279432;22;20226;-62
2022/05/12 06:54:02;;;;;;;3.75;1.73;;;;;;;;;;6281018;22;20563;-62
2022/05/12 06:56:28;;;;;;;3.08;1.98;;;;;;;;;;6281115;22;20155;-62
2022/05/12 06:58:54;;;;;;;2.70;1.60;;;;;;;;;;6281694;22;20169;-62
2022/05/12 07:01:20;;;;;;;3.60;1.50;;;;;;;;;;6281135;22;20169;-63
2022/05/12 07:03:46;;;;;;;3.53;1.85;;;;;;;;;;6281910;22;20223;-62
2022/05/12 07:06:12;;;;;;;2.20;1.77;;;;;;;;;;6282641;22;20269;-62
2022/05/12 07:08:41;;;;;;;4.63;1.80;;;;;;;;;;6282639;22;20548;-62
2022/05/12 07:11:07;;;;;;;4.93;2.35;;;;;;;;;;6277157;22;20445;-62
2022/05/12 07:13:33;;;;;;;13.52;2.20;;;;;;;;;;6277079;22;20151;-63
2022/05/12 07:15:58;;;;;;;5.28;2.05;;;;;;;;;;6277383;22;20147;-63
2022/05/12 07:18:24;;;;;;;6.38;1.85;;;;;;;;;;6277535;22;20167;-60
2022/05/12 07:29:05;;;;;;;3.05;1.83;;;;;;;;;;6277082;22;20297;-63
2022/05/12 07:31:31;;;;;;;3.67;1.63;;;;;;;;;;6277000;22;20212;-63
2022/05/12 07:33:57;;;;;;;5.90;1.83;;;;;;;;;;6276669;22;20148;-63
2022/05/12 07:36:28;;;;;;;5.50;1.42;;;;;;;;;;6276571;22;20589;-62
2022/05/12 07:38:55;;;;;;;3.45;1.40;;;;;;;;;;6276385;22;20455;-63
2022/05/12 07:41:22;;;;;;;3.67;1.83;;;;;;;;;;6276865;22;20171;-63
2022/05/12 07:43:48;;;;;;;5.65;1.60;;;;;;;;;;6276981;22;20209;-63
2022/05/12 07:46:15;;;;;;;4.40;1.77;;;;;;;;;;6276586;22;20143;-63
2022/05/12 07:48:42;;;;;;;2.90;1.73;;;;;;;;;;6276636;22;20147;-62
2022/05/12 07:51:08;;;;;;;3.47;1.70;;;;;;;;;;6276163;22;20383;-61
2022/05/12 07:53:35;;;;;;;3.35;1.60;;;;;;;;;;6276718;22;20450;-64
2022/05/12 07:56:01;;;;;;;4.22;1.60;;;;;;;;;;6276532;22;20415;-62
2022/05/12 07:58:27;;;;;;;3.80;1.42;;;;;;;;;;6276791;22;20174;-62
2022/05/12 08:00:53;;;;;;;3.78;1.80;;;;;;;;;;6276807;22;20174;-61
2022/05/12 08:03:20;;;;;;;5.80;1.70;;;;;;;;;;6276604;22;20136;-62
2022/05/12 08:05:46;;;;;;;3.85;1.67;;;;;;;;;;6276575;22;20140;-64
2022/05/12 08:08:12;;;;;;;3.35;1.40;;;;;;;;;;6276475;22;20214;-62
2022/05/12 08:10:38;;;;;;;3.38;1.30;;;;;;;;;;6276697;22;20140;-63
2022/05/12 08:13:04;;;;;;;3.22;1.30;;;;;;;;;;6277317;22;20214;-63
2022/05/12 08:15:30;;;;;;;4.90;1.50;;;;;;;;;;6276848;22;20150;-63
2022/05/12 08:17:59;;;;;;;2.20;1.50;;;;;;;;;;6276369;22;20164;-62
2022/05/12 08:20:25;;;;;;;5.07;1.75;;;;;;;;;;6277916;22;20412;-63
2022/05/12 08:22:51;;;;;;;3.22;1.48;;;;;;;;;;6278508;22;20447;-63
2022/05/12 08:25:18;;;;;;;3.80;1.40;;;;;;;;;;6278554;22;20450;-63
2022/05/12 08:27:44;;;;;;;3.10;1.55;;;;;;;;;;6278765;22;20158;-64
2022/05/12 08:30:12;;;;;;;3.53;1.50;;;;;;;;;;6278507;22;20242;-63
2022/05/12 08:32:38;;;;;;;5.40;1.70;;;;;;;;;;6278308;22;20166;-64
2022/05/12 08:35:05;;;;;;;4.03;1.45;;;;;;;;;;6278783;22;20551;-65
2022/05/12 08:37:31;;;;;;;3.05;1.60;;;;;;;;;;6278232;22;20249;-64
2022/05/12 08:39:57;;;;;;;3.42;1.63;;;;;;;;;;6278452;22;20445;-64
2022/05/12 08:42:35;;;;;;;3.50;1.50;;;;;;;;;;6278350;22;20465;-63
2022/05/12 08:45:02;;;;;;;5.30;1.80;;;;;;;;;;6277278;22;20450;-64
2022/05/12 08:47:31;;;;;;;4.63;1.50;;;;;;;;;;6277994;22;20446;-63
2022/05/12 08:49:57;;;;;;;5.35;1.88;;;;;;;;;;6278253;22;20551;-64
2022/05/12 08:52:25;;;;;;;4.53;1.60;;;;;;;;;;6278199;22;20144;-64
2022/05/12 08:55:01;;;;;;;3.85;1.60;;;;;;;;;;6277938;22;20581;-63
2022/05/12 08:57:30;;;;;;;3.88;1.88;;;;;;;;;;6278148;22;20188;-64
2022/05/12 08:59:56;;;;;;;4.68;1.70;;;;;;;;;;6278334;22;20178;-64
2022/05/12 09:02:34;;;;;;;4.00;1.40;;;;;;;;;;6278163;22;20144;-64
2022/05/12 09:05:11;;;;;;;4.55;1.80;;;;;;;;;;6277968;22;20511;-64
2022/05/12 09:07:44;;;;;;;2.05;1.40;;;;;;;;;;6278028;22;20147;-64
2022/05/12 09:10:20;;;;;;;6.28;1.85;;;;;;;;;;6278195;22;20174;-63
2022/05/12 09:12:55;;;;;;;5.45;1.80;;;;;;;;;;6277939;22;20439;-64
2022/05/12 09:15:26;;;;;;;3.15;1.50;;;;;;;;;;6277727;22;20564;-64
2022/05/12 09:17:57;;;;;;;4.43;1.90;;;;;;;;;;6277943;22;20233;-64
2022/05/12 09:20:24;;;;;;;5.43;1.80;;;;;;;;;;6276694;22;20649;-63
2022/05/12 09:22:50;;;;;;;3.60;1.70;;;;;;;;;;6277917;22;20166;-63
2022/05/12 09:25:42;;;;;;;3.35;1.40;;;;;;;;;;6277980;22;20142;-64
2022/05/12 09:28:14;;;;;;;4.25;1.83;;;;;;;;;;6272222;22;20154;-64
2022/05/12 09:30:41;;;;;;;2.45;1.67;;;;;;;;;;6277236;22;20214;-62
2022/05/12 09:33:06;;;;;;;4.15;1.75;;;;;;;;;;6277904;22;20167;-63
2022/05/12 09:35:32;;;;;;;3.08;1.50;;;;;;;;;;6277747;22;20249;-63
2022/05/12 09:37:58;;;;;;;4.53;1.80;;;;;;;;;;6278415;22;20272;-63
2022/05/12 09:40:37;;;;;;;5.57;1.58;;;;;;;;;;6278636;22;20480;-63
2022/05/12 09:43:17;;;;;;;3.97;1.60;;;;;;;;;;6278372;22;20127;-64
2022/05/12 09:45:44;;;;;;;4.18;1.70;;;;;;;;;;6278325;22;20534;-63
2022/05/12 09:48:20;;;;;;;6.95;2.60;;;;;;;;;;6277898;22;20378;-64
2022/05/12 09:50:47;;;;;;;5.38;1.52;;;;;;;;;;6277804;22;20494;-63
2022/05/12 09:53:23;;;;;;;3.58;1.80;;;;;;;;;;6277871;22;20146;-63
2022/05/12 09:56:01;;;;;;;4.88;1.92;;;;;;;;;;6278002;22;20154;-62
2022/05/12 09:58:34;;;;;;;5.45;1.73;;;;;;;;;;6277811;22;20585;-61
2022/05/12 10:01:10;;;;;;;3.58;1.30;;;;;;;;;;6277853;22;20147;-64
2022/05/12 10:09:15;;;;;;;3.38;1.38;;;;;;;;;;6277499;22;20154;-63
2022/05/12 10:11:44;;;;;;;3.13;1.60;;;;;;;;;;6277922;22;20150;-63
2022/05/12 10:14:16;;;;;;;4.10;1.33;;;;;;;;;;6277447;22;20146;-64
2022/05/12 10:16:42;;;;;;;3.35;1.60;;;;;;;;;;6277222;22;20141;-64
2022/05/12 10:19:12;;;;;;;4.10;1.63;;;;;;;;;;6277096;22;20175;-63
2022/05/12 10:21:45;;;;;;;4.18;1.92;;;;;;;;;;6277390;22;20136;-64
2022/05/12 10:24:31;;;;;;;2.60;1.63;;;;;;;;;;6277612;22;20492;-63
2022/05/12 10:27:03;;;;;;;4.32;1.70;;;;;;;;;;6277603;22;20143;-62
2022/05/12 10:29:47;;;;;;;1.65;1.40;;;;;;;;;;6277029;22;20558;-63
2022/05/12 10:32:31;;;;;;;5.55;1.80;;;;;;;;;;6277461;22;20153;-63
2022/05/12 10:35:00;;;;;;;3.72;1.60;;;;;;;;;;6276845;22;20176;-63
2022/05/12 10:37:33;;;;;;;6.38;1.80;;;;;;;;;;6276811;22;20159;-63
2022/05/12 10:40:05;;;;;;;4.63;1.70;;;;;;;;;;6277010;22;20578;-63
2022/05/12 10:42:49;;;;;;;2.67;1.30;;;;;;;;;;6276912;22;20143;-63
2022/05/12 10:45:27;;;;;;;3.92;1.45;;;;;;;;;;6277794;22;20135;-62
2022/05/12 10:48:07;;;;;;;4.68;1.40;;;;;;;;;;6277053;22;20143;-62
2022/05/12 10:50:39;;;;;;;3.53;1.95;;;;;;;;;;6276593;22;20510;-63
2022/05/12 10:53:05;;;;;;;1.92;1.20;;;;;;;;;;6276928;22;20139;-65
2022/05/12 10:55:46;;;;;;;2.63;1.30;;;;;;;;;;6276640;22;20154;-62
2022/05/12 10:58:26;;;;;;;12.30;2.55;;;;;;;;;;6277115;22;20255;-63
2022/05/12 11:00:57;;;;;;;2.80;1.00;;;;;;;;;;6277003;22;20151;-64
2022/05/12 11:03:38;;;;;;;4.13;1.00;;;;;;;;;;6277162;22;20210;-63
2022/05/12 11:06:06;;;;;;;3.78;1.08;;;;;;;;;;6276766;22;20139;-63
2022/05/12 11:08:43;;;;;;;1.85;1.00;;;;;;;;;;6276813;22;20143;-63
2022/05/12 11:11:31;;;;;;;2.15;1.00;;;;;;;;;;6277214;22;20127;-63
2022/05/12 11:14:00;;;;;;;2.50;1.33;;;;;;;;;;6277251;22;20438;-63
2022/05/12 11:16:30;;;;;;;1.85;1.10;;;;;;;;;;6276621;22;20139;-63
2022/05/12 11:19:08;;;;;;;2.63;1.08;;;;;;;;;;6276610;22;20159;-63
2022/05/12 11:21:41;;;;;;;2.83;1.10;;;;;;;;;;6276765;22;20147;-63
2022/05/12 11:24:22;;;;;;;3.20;1.23;;;;;;;;;;6276610;22;20614;-63
2022/05/12 11:27:00;;;;;;;3.17;0.90;;;;;;;;;;6276986;22;20147;-63
2022/05/12 11:29:44;;;;;;;2.53;1.02;;;;;;;;;;6276548;22;20142;-62
2022/05/12 11:32:19;;;;;;;1.73;0.98;;;;;;;;;;6276733;22;20239;-63
2022/05/12 11:34:48;;;;;;;2.83;1.00;;;;;;;;;;6276596;22;20157;-62
2022/05/12 11:37:43;;;;;;;2.47;0.88;;;;;;;;;;6276651;22;20201;-63
2022/05/12 11:40:11;;;;;;;2.58;1.02;;;;;;;;;;6250710;22;20406;-63
2022/05/12 11:45:47;;;;;;;3.72;1.20;;;;;;;;;;6276774;22;20134;-63
2022/05/12 11:48:19;;;;;;;1.52;0.90;;;;;;;;;;6277109;22;20137;-63
2022/05/12 11:50:56;;;;;;;3.67;1.08;;;;;;;;;;6276659;22;20123;-63
2022/05/12 11:53:27;;;;;;;2.70;0.80;;;;;;;;;;6277019;22;20135;-63
2022/05/12 11:56:02;;;;;;;2.85;0.88;;;;;;;;;;6278277;22;20578;-63
2022/05/12 11:58:40;;;;;;;4.82;1.33;;;;;;;;;;6278347;22;20293;-63
2022/05/12 12:01:11;;;;;;;3.25;0.93;;;;;;;;;;6278940;22;20130;-63
2022/05/12 12:03:46;;;;;;;3.55;1.00;;;;;;;;;;6278503;22;20583;-63
2022/05/12 12:06:32;;;;;;;2.67;0.80;;;;;;;;;;6278836;22;20122;-63
2022/05/12 12:09:18;;;;;;;1.85;0.60;;;;;;;;;;6278252;22;20179;-63
2022/05/12 12:11:44;;;;;;;4.45;1.00;;;;;;;;;;6278588;22;20139;-63
2022/05/12 12:14:10;;;;;;;1.60;0.80;;;;;;;;;;6278484;22;20396;-63
2022/05/12 12:16:54;;;;;;;3.25;0.73;;;;;;;;;;6278557;22;20162;-64
2022/05/12 12:19:39;;;;;;;3.17;0.70;;;;;;;;;;6251737;22;20186;-63
2022/05/12 12:22:15;;;;;;;1.88;0.60;;;;;;;;;;6278479;22;20165;-63
2022/05/12 12:24:44;;;;;;;1.48;0.77;;;;;;;;;;6278187;22;20169;-63
2022/05/12 12:27:18;;;;;;;1.60;0.70;;;;;;;;;;6278995;22;20147;-63
2022/05/12 12:29:47;;;;;;;0.68;0.60;;;;;;;;;;6278362;22;20189;-63
2022/05/12 12:32:19;;;;;;;2.38;0.77;;;;;;;;;;6278897;22;20143;-63
2022/05/12 12:34:48;;;;;;;5.10;0.93;;;;;;;;;;6278281;22;20139;-63
2022/05/12 12:37:34;;;;;;;2.30;0.80;;;;;;;;;;6278433;22;20162;-63
2022/05/12 12:40:00;;;;;;;6.40;1.40;;;;;;;;;;6278342;22;20135;-63
2022/05/12 12:42:28;;;;;;;5.03;0.90;;;;;;;;;;6278255;22;20142;-63
2022/05/12 12:44:56;;;;;;;4.13;0.80;;;;;;;;;;6278278;22;20144;-63
2022/05/12 12:47:38;;;;;;;2.15;0.80;;;;;;;;;;6278417;22;20143;-63
2022/05/12 12:50:09;;;;;;;2.78;0.82;;;;;;;;;;6251316;22;20159;-63
2022/05/12 12:52:42;;;;;;;2.20;0.70;;;;;;;;;;6278261;22;20143;-63
2022/05/12 12:58:00;;;;;;;2.30;0.80;;;;;;;;;;6278193;22;20209;-63
2022/05/12 13:00:33;;;;;;;2.15;0.90;;;;;;;;;;6278137;22;20235;-63
2022/05/12 13:03:04;;;;;;;1.67;0.60;;;;;;;;;;6278239;22;20547;-63
2022/05/12 13:05:30;;;;;;;3.85;0.90;;;;;;;;;;6278123;22;20218;-63
2022/05/12 13:08:01;;;;;;;1.77;0.63;;;;;;;;;;6277818;22;20146;-63
2022/05/12 13:10:28;;;;;;;1.83;0.52;;;;;;;;;;6277954;22;20154;-63
2022/05/12 13:13:06;;;;;;;1.02;0.60;;;;;;;;;;6278280;22;20143;-63
2022/05/12 13:15:33;;;;;;;2.50;0.60;;;;;;;;;;6277610;22;20221;-63
2022/05/12 13:18:01;;;;;;;3.13;0.70;;;;;;;;;;6278185;22;20224;-63
2022/05/12 13:20:32;;;;;;;3.20;0.70;;;;;;;;;;6277806;22;20149;-63
2022/05/12 13:23:01;;;;;;;3.03;0.70;;;;;;;;;;6277999;22;20134;-63
2022/05/12 13:25:29;;;;;;;1.50;0.70;;;;;;;;;;6277655;22;20454;-63
2022/05/12 13:27:55;;;;;;;1.80;0.80;;;;;;;;;;6278166;22;20222;-63
2022/05/12 13:30:26;;;;;;;3.40;0.68;;;;;;;;;;6277712;22;20555;-62
2022/05/12 13:32:53;;;;;;;1.75;0.93;;;;;;;;;;6277693;22;20204;-62
2022/05/12 13:35:21;;;;;;;3.60;0.70;;;;;;;;;;6277608;22;20139;-63
2022/05/12 13:37:53;;;;;;;2.95;1.15;;;;;;;;;;6277840;22;20173;-63
2022/05/12 13:40:37;;;;;;;5.32;0.80;;;;;;;;;;6277913;22;20139;-62
2022/05/12 13:43:04;;;;;;;1.92;0.70;;;;;;;;;;6277579;22;20165;-63
2022/05/12 13:45:31;;;;;;;3.78;0.80;;;;;;;;;;6277783;22;20139;-63
2022/05/12 13:47:58;;;;;;;3.28;0.70;;;;;;;;;;6277979;22;20151;-62
2022/05/12 13:50:54;;;;;;;4.43;0.90;;;;;;;;;;6277772;22;20138;-63
2022/05/12 13:53:24;;;;;;;2.78;0.60;;;;;;;;;;6252423;22;20598;-62
2022/05/12 13:56:04;;;;;;;1.45;0.60;;;;;;;;;;6277109;22;20163;-63
2022/05/12 13:58:30;;;;;;;2.78;1.00;;;;;;;;;;6277351;22;20630;-63
2022/05/12 14:00:56;;;;;;;2.65;0.90;;;;;;;;;;6277396;22;20158;-62
2022/05/12 14:03:30;;;;;;;2.03;0.80;;;;;;;;;;6277313;22;20185;-63
2022/05/12 14:06:20;;;;;;;1.17;0.70;;;;;;;;;;6277982;22;20140;-62
2022/05/12 14:08:46;;;;;;;2.00;0.65;;;;;;;;;;6277934;22;20167;-63
2022/05/12 14:11:18;;;;;;;2.33;0.65;;;;;;;;;;6277495;22;20605;-62
2022/05/12 14:19:36;;;;;;;2.40;1.27;;;;;;;;;;6277316;22;20143;-62
2022/05/12 14:22:24;;;;;;;4.30;0.73;;;;;;;;;;6277716;22;20142;-63
2022/05/12 14:24:50;;;;;;;2.08;0.88;;;;;;;;;;6277764;22;20202;-63
2022/05/12 14:27:19;;;;;;;1.60;0.70;;;;;;;;;;6277730;22;20139;-63
2022/05/12 14:29:45;;;;;;;2.47;0.90;;;;;;;;;;6277823;22;20159;-63
2022/05/12 14:32:13;;;;;;;3.63;0.82;;;;;;;;;;6278229;22;20232;-63
2022/05/12 14:34:40;;;;;;;2.28;0.82;;;;;;;;;;6278152;22;20420;-64
2022/05/12 14:37:06;;;;;;;4.70;0.88;;;;;;;;;;6278015;22;20147;-63
2022/05/12 14:39:33;;;;;;;1.77;0.65;;;;;;;;;;6277429;22;20150;-63
2022/05/12 14:42:00;;;;;;;2.97;0.95;;;;;;;;;;6277370;22;20215;-63
2022/05/12 14:44:26;;;;;;;1.88;0.60;;;;;;;;;;6277277;22;20558;-61
2022/05/12 14:46:53;;;;;;;1.58;0.80;;;;;;;;;;6278258;22;20139;-63
2022/05/12 14:49:24;;;;;;;2.25;0.70;;;;;;;;;;6277370;22;20139;-62
2022/05/12 14:51:49;;;;;;;3.25;0.70;;;;;;;;;;6276982;22;20127;-63
2022/05/12 14:54:15;;;;;;;2.35;0.80;;;;;;;;;;6277243;22;20143;-62
2022/05/12 14:56:42;;;;;;;2.42;0.73;;;;;;;;;;6276884;22;20559;-61
2022/05/12 14:59:08;;;;;;;3.83;0.90;;;;;;;;;;6276753;22;20178;-62
2022/05/12 15:01:34;;;;;;;2.33;0.65;;;;;;;;;;6277019;22;20499;-62
2022/05/12 15:04:00;;;;;;;2.55;0.70;;;;;;;;;;6276914;22;20135;-63
2022/05/12 15:06:30;;;;;;;1.25;0.70;;;;;;;;;;6276728;22;20150;-62
2022/05/12 15:08:56;;;;;;;6.50;1.02;;;;;;;;;;6277111;22;20127;-63
2022/05/12 15:11:22;;;;;;;2.63;0.70;;;;;;;;;;6276866;22;20143;-63
2022/05/12 15:13:48;;;;;;;2.17;0.70;;;;;;;;;;6277143;22;20143;-63
2022/05/12 15:16:14;;;;;;;3.05;0.85;;;;;;;;;;6277057;22;20174;-63
2022/05/12 15:18:40;;;;;;;2.10;0.60;;;;;;;;;;6277053;22;20177;-63
2022/05/12 15:21:07;;;;;;;2.42;0.60;;;;;;;;;;6277111;22;20234;-63
2022/05/12 15:23:33;;;;;;;1.77;0.68;;;;;;;;;;6276794;22;20143;-64